createdAt,value
2022-10-06T00:01:48.940Z,6.37
2022-10-06T00:04:17.281Z,3.80
2022-10-06T00:06:45.557Z,4.57
2022-10-06T00:09:13.907Z,4.97
2022-10-06T00:11:42.197Z,3.80
2022-10-06T00:14:10.619Z,4.53
2022-10-06T00:16:39.043Z,5.47
2022-10-06T00:19:07.319Z,5.57
2022-10-06T00:21:36.090Z,5.30
2022-10-06T00:24:04.536Z,5.27
2022-10-06T00:26:32.872Z,4.63
2022-10-06T00:29:01.207Z,5.40
2022-10-06T00:31:29.653Z,4.10
2022-10-06T00:33:58.027Z,4.83
2022-10-06T00:36:28.353Z,5.17
2022-10-06T00:38:56.748Z,4.37
2022-10-06T00:41:25.428Z,3.83
2022-10-06T00:47:56.159Z,3.53
2022-10-06T00:50:24.588Z,4.20
2022-10-06T00:52:53.165Z,4.70
2022-10-06T00:55:22.479Z,4.87
2022-10-06T00:57:53.570Z,4.00
2022-10-06T01:00:22.203Z,3.83
2022-10-06T01:02:58.055Z,3.77
2022-10-06T01:05:36.542Z,4.47
2022-10-06T01:08:05.102Z,4.20
2022-10-06T01:10:33.480Z,3.53
2022-10-06T01:13:02.588Z,3.77
2022-10-06T01:15:31.377Z,3.20
2022-10-06T01:18:05.899Z,3.90
2022-10-06T01:20:38.486Z,4.83
2022-10-06T01:23:10.142Z,4.47
2022-10-06T01:25:39.115Z,3.10
2022-10-06T01:28:09.475Z,4.70
2022-10-06T01:30:54.389Z,4.20
2022-10-06T01:33:24.014Z,3.17
2022-10-06T01:35:53.971Z,3.33
2022-10-06T01:38:22.766Z,2.80
2022-10-06T01:40:53.759Z,4.93
2022-10-06T01:43:22.664Z,4.63
2022-10-06T01:45:58.428Z,3.67
2022-10-06T01:48:27.786Z,6.33
2022-10-06T01:50:56.829Z,3.73
2022-10-06T01:53:25.245Z,4.20
2022-10-06T01:55:58.411Z,5.33
2022-10-06T01:58:27.525Z,4.17
2022-10-06T02:00:56.501Z,3.67
2022-10-06T02:03:24.871Z,3.40
2022-10-06T02:05:53.416Z,3.50
2022-10-06T02:08:21.862Z,3.50
2022-10-06T02:10:50.637Z,5.67
2022-10-06T02:13:19.188Z,3.20
2022-10-06T02:15:47.571Z,6.57
2022-10-06T02:18:16.147Z,5.93
2022-10-06T02:20:44.539Z,3.80
2022-10-06T02:23:12.906Z,5.27
2022-10-06T02:25:41.349Z,6.33
2022-10-06T02:28:09.967Z,4.17
2022-10-06T02:30:39.333Z,7.63
2022-10-06T02:33:07.823Z,5.73
2022-10-06T02:35:36.321Z,5.23
2022-10-06T02:38:04.806Z,7.63
2022-10-06T02:40:33.219Z,3.00
2022-10-06T02:43:01.972Z,5.97
2022-10-06T02:45:31.162Z,5.57
2022-10-06T02:47:59.611Z,6.70
2022-10-06T02:50:28.087Z,8.27
2022-10-06T02:52:57.085Z,3.87
2022-10-06T02:55:25.749Z,6.00
2022-10-06T02:58:00.280Z,9.47
2022-10-06T03:00:28.928Z,6.73
2022-10-06T03:02:57.304Z,5.07
2022-10-06T03:05:25.987Z,6.37
2022-10-06T03:07:54.334Z,6.33
2022-10-06T03:10:25.895Z,2.70
2022-10-06T03:12:54.251Z,4.00
2022-10-06T03:15:22.709Z,4.63
2022-10-06T03:17:52.581Z,2.40
2022-10-06T03:20:21.015Z,4.60
2022-10-06T03:22:49.868Z,3.83
2022-10-06T03:25:18.607Z,3.63
2022-10-06T03:27:47.082Z,3.17
2022-10-06T03:30:15.834Z,3.50
2022-10-06T03:32:44.323Z,3.40
2022-10-06T03:35:12.740Z,5.93
2022-10-06T03:37:41.178Z,4.37
2022-10-06T03:40:10.442Z,4.17
2022-10-06T03:42:38.873Z,3.10
2022-10-06T03:45:08.025Z,3.07
2022-10-06T03:47:36.483Z,5.73
2022-10-06T03:50:04.857Z,3.13
2022-10-06T03:52:34.010Z,3.97
2022-10-06T03:55:02.459Z,3.70
2022-10-06T03:57:39.850Z,2.70
2022-10-06T04:00:10.662Z,3.20
2022-10-06T04:02:39.051Z,4.50
2022-10-06T04:05:08.199Z,3.50
2022-10-06T04:07:36.550Z,3.90
2022-10-06T04:10:05.066Z,3.77
2022-10-06T04:12:33.444Z,4.33
2022-10-06T04:15:02.465Z,4.17
2022-10-06T04:17:31.183Z,4.40
2022-10-06T04:19:59.571Z,5.23
2022-10-06T04:22:27.962Z,3.93
2022-10-06T04:24:56.481Z,3.57
2022-10-06T04:27:31.189Z,3.90
2022-10-06T04:30:09.113Z,4.30
2022-10-06T04:32:38.239Z,3.80
2022-10-06T04:35:06.894Z,3.10
2022-10-06T04:37:35.257Z,3.07
2022-10-06T04:40:03.816Z,3.63
2022-10-06T04:42:35.221Z,2.77
2022-10-06T04:45:05.829Z,2.90
2022-10-06T04:47:41.393Z,2.23
2022-10-06T04:50:10.420Z,3.13
2022-10-06T04:52:39.099Z,1.97
2022-10-06T04:55:08.071Z,2.63
2022-10-06T05:00:58.462Z,2.80
2022-10-06T05:03:28.964Z,3.93
2022-10-06T05:06:09.202Z,1.60
2022-10-06T05:08:37.603Z,8.83
2022-10-06T05:11:13.639Z,0.70
2022-10-06T05:13:45.150Z,0.80
2022-10-06T05:16:18.348Z,1.47
2022-10-06T05:18:46.667Z,1.87
2022-10-06T05:21:21.566Z,0.60
2022-10-06T05:23:50.096Z,0.60
2022-10-06T05:26:23.004Z,1.13
2022-10-06T05:28:51.485Z,0.60
2022-10-06T05:31:32.057Z,1.17
2022-10-06T05:34:01.023Z,0.87
2022-10-06T05:36:31.998Z,1.67
2022-10-06T05:39:00.713Z,0.70
2022-10-06T05:41:34.579Z,1.83
2022-10-06T05:44:03.266Z,1.73
2022-10-06T05:46:42.355Z,2.37
2022-10-06T05:49:13.828Z,1.30
2022-10-06T05:51:42.818Z,1.17
2022-10-06T05:54:11.273Z,0.83
2022-10-06T05:56:40.059Z,0.73
2022-10-06T05:59:08.650Z,0.90
2022-10-06T06:01:42.664Z,1.00
2022-10-06T06:04:13.398Z,0.93
2022-10-06T06:06:45.243Z,0.93
2022-10-06T06:09:15.465Z,1.40
2022-10-06T06:11:47.047Z,1.37
2022-10-06T06:14:18.821Z,2.40
2022-10-06T06:16:46.667Z,0.93
2022-10-06T06:19:16.228Z,1.80
2022-10-06T06:21:44.657Z,0.80
2022-10-06T06:24:13.008Z,2.10
2022-10-06T06:26:41.758Z,1.00
2022-10-06T06:29:10.134Z,3.07
2022-10-06T06:31:41.303Z,2.30
2022-10-06T06:34:16.847Z,0.93
2022-10-06T06:36:47.561Z,3.50
2022-10-06T06:39:18.709Z,2.20
2022-10-06T06:41:47.775Z,1.10
2022-10-06T06:44:16.519Z,0.70
2022-10-06T06:46:49.236Z,1.30
2022-10-06T06:49:19.437Z,3.33
2022-10-06T06:51:50.814Z,0.70
2022-10-06T06:54:19.567Z,1.83
2022-10-06T06:56:48.932Z,4.47
2022-10-06T06:59:17.927Z,2.73
2022-10-06T07:01:47.373Z,1.63
2022-10-06T07:04:17.927Z,3.70
2022-10-06T07:06:57.047Z,1.47
2022-10-06T07:09:27.054Z,2.57
2022-10-06T07:11:56.043Z,3.57
2022-10-06T07:14:24.512Z,1.90
2022-10-06T07:17:10.279Z,3.70
2022-10-06T07:19:56.216Z,2.20
2022-10-06T07:22:44.061Z,1.20
2022-10-06T07:25:26.931Z,2.80
2022-10-06T07:27:55.759Z,4.60
2022-10-06T07:30:29.676Z,3.30
2022-10-06T07:32:58.042Z,4.50
2022-10-06T07:35:26.775Z,3.97
2022-10-06T07:37:55.302Z,5.47
2022-10-06T07:40:23.907Z,3.53
2022-10-06T07:42:52.864Z,2.00
2022-10-06T07:45:39.720Z,5.30
2022-10-06T07:48:15.579Z,3.77
2022-10-06T07:50:45.776Z,2.83
2022-10-06T07:53:14.329Z,2.47
2022-10-06T07:55:45.165Z,3.80
2022-10-06T07:58:20.072Z,3.20
2022-10-06T08:00:49.510Z,4.10
2022-10-06T08:03:18.899Z,6.13
2022-10-06T08:05:51.667Z,4.30
2022-10-06T08:08:20.069Z,3.83
2022-10-06T08:10:55.179Z,4.27
2022-10-06T08:13:23.901Z,3.13
2022-10-06T08:15:54.882Z,5.27
2022-10-06T08:18:45.381Z,4.03
2022-10-06T08:21:19.606Z,6.77
2022-10-06T08:23:49.886Z,4.23
2022-10-06T08:26:23.150Z,4.47
2022-10-06T08:28:53.961Z,5.50
2022-10-06T08:31:24.299Z,2.73
2022-10-06T08:33:57.173Z,4.63
2022-10-06T08:36:31.473Z,3.43
2022-10-06T08:39:00.381Z,2.00
2022-10-06T08:41:48.491Z,2.80
2022-10-06T08:44:18.621Z,5.70
2022-10-06T08:47:36.179Z,2.13
2022-10-06T08:50:12.189Z,5.93
2022-10-06T08:53:07.494Z,5.63
2022-10-06T08:55:52.811Z,6.47
2022-10-06T08:58:58.413Z,4.70
2022-10-06T09:01:44.970Z,2.53
2022-10-06T09:04:29.511Z,5.60
2022-10-06T09:07:11.407Z,2.97
2022-10-06T09:10:23.159Z,4.73
2022-10-06T09:12:58.948Z,5.93
2022-10-06T09:15:55.186Z,3.50
2022-10-06T09:19:03.515Z,4.30
2022-10-06T09:21:36.376Z,5.60
2022-10-06T09:24:14.658Z,5.13
2022-10-06T09:26:46.396Z,3.77
2022-10-06T09:29:15.341Z,3.83
2022-10-06T09:31:50.687Z,4.57
2022-10-06T09:34:25.414Z,5.53
2022-10-06T09:37:01.946Z,6.20
2022-10-06T09:39:36.626Z,5.80
2022-10-06T09:42:35.579Z,3.07
2022-10-06T09:45:08.477Z,3.93
2022-10-06T09:47:45.966Z,5.47
2022-10-06T09:50:27.690Z,3.87
2022-10-06T09:53:01.796Z,3.67
2022-10-06T09:55:54.682Z,6.03
2022-10-06T10:01:30.114Z,4.10
2022-10-06T10:04:19.387Z,9.70
2022-10-06T10:06:48.724Z,6.00
2022-10-06T10:09:21.923Z,2.97
2022-10-06T10:12:30.994Z,2.47
2022-10-06T10:15:23.040Z,5.63
2022-10-06T10:17:55.868Z,4.63
2022-10-06T10:20:52.167Z,7.47
2022-10-06T10:23:31.927Z,5.37
2022-10-06T10:26:21.908Z,3.70
2022-10-06T10:29:03.355Z,3.30
2022-10-06T10:31:53.780Z,3.50
2022-10-06T10:34:43.115Z,5.27
2022-10-06T10:37:26.817Z,7.10
2022-10-06T10:40:13.291Z,4.93
2022-10-06T10:43:12.227Z,6.50
2022-10-06T10:45:53.437Z,3.87
2022-10-06T10:48:43.790Z,4.57
2022-10-06T10:51:23.857Z,5.97
2022-10-06T10:54:05.196Z,6.60
2022-10-06T10:56:34.915Z,5.97
2022-10-06T10:59:26.458Z,3.53
2022-10-06T11:02:12.119Z,3.93
2022-10-06T11:04:47.190Z,3.33
2022-10-06T11:07:36.090Z,5.03
2022-10-06T11:10:26.261Z,4.77
2022-10-06T11:13:21.203Z,3.07
2022-10-06T11:16:05.701Z,3.20
2022-10-06T11:19:14.750Z,3.83
2022-10-06T11:21:52.506Z,6.13
2022-10-06T11:24:24.817Z,5.07
2022-10-06T11:27:18.088Z,5.87
2022-10-06T11:30:14.996Z,5.53
2022-10-06T11:33:29.702Z,4.00
2022-10-06T11:35:58.174Z,7.67
2022-10-06T11:38:48.062Z,3.93
2022-10-06T11:41:32.436Z,7.20
2022-10-06T11:44:31.114Z,2.70
2022-10-06T11:47:35.320Z,4.33
2022-10-06T11:50:13.890Z,3.13
2022-10-06T11:52:47.128Z,7.40
2022-10-06T11:55:18.704Z,4.73
2022-10-06T11:58:54.951Z,8.20
2022-10-06T12:01:33.507Z,5.13
2022-10-06T12:04:10.443Z,5.83
2022-10-06T12:06:44.526Z,8.10
2022-10-06T12:09:28.837Z,3.57
2022-10-06T12:12:17.832Z,8.43
2022-10-06T12:16:58.132Z,3.60
2022-10-06T12:18:06.205Z,4.93
2022-10-06T12:21:08.220Z,2.30
2022-10-06T12:23:41.748Z,3.13
2022-10-06T12:26:29.743Z,4.20
2022-10-06T12:29:35.866Z,2.00
2022-10-06T12:32:24.469Z,3.60
2022-10-06T12:35:03.938Z,4.57
2022-10-06T12:37:52.997Z,2.70
2022-10-06T12:40:40.528Z,10.70
2022-10-06T12:43:14.552Z,4.63
2022-10-06T12:46:19.339Z,3.57
2022-10-06T12:49:04.419Z,5.00
2022-10-06T12:51:47.466Z,5.53
2022-10-06T12:54:19.492Z,4.33
2022-10-06T12:57:19.994Z,3.57
2022-10-06T12:59:49.556Z,2.87
2022-10-06T13:02:23.825Z,3.20
2022-10-06T13:05:03.732Z,6.00
2022-10-06T13:07:35.105Z,2.00
2022-10-06T13:10:22.173Z,3.30
2022-10-06T13:12:52.304Z,5.93
2022-10-06T13:15:22.378Z,3.10
2022-10-06T13:18:08.681Z,5.50
2022-10-06T13:20:49.058Z,5.93
2022-10-06T13:23:24.523Z,6.00
2022-10-06T13:26:00.153Z,4.57
2022-10-06T13:28:31.498Z,5.50
2022-10-06T13:31:11.431Z,2.63
2022-10-06T13:33:45.753Z,2.13
2022-10-06T13:36:14.770Z,4.67
2022-10-06T13:38:43.638Z,3.40
2022-10-06T13:41:14.764Z,3.53
2022-10-06T13:44:07.807Z,4.47
2022-10-06T13:46:42.653Z,3.70
2022-10-06T13:49:25.060Z,2.40
2022-10-06T13:51:59.833Z,7.33
2022-10-06T13:54:40.591Z,4.27
2022-10-06T13:57:48.714Z,4.50
2022-10-06T14:00:20.019Z,3.27
2022-10-06T14:02:55.403Z,5.47
2022-10-06T14:05:31.513Z,2.53
2022-10-06T14:08:02.921Z,3.80
2022-10-06T14:10:37.895Z,3.53
2022-10-06T14:13:16.994Z,2.73
2022-10-06T14:15:59.418Z,3.90
2022-10-06T14:18:33.732Z,5.10
2022-10-06T14:21:45.244Z,4.87
2022-10-06T14:24:22.381Z,2.80
2022-10-06T14:26:52.105Z,4.80
2022-10-06T14:29:20.758Z,7.63
2022-10-06T14:31:49.398Z,3.03
2022-10-06T14:34:21.671Z,4.83
2022-10-06T14:36:52.499Z,2.87
2022-10-06T14:39:20.935Z,6.53
2022-10-06T14:41:49.320Z,3.87
2022-10-06T14:44:17.694Z,2.80
2022-10-06T14:46:49.538Z,3.03
2022-10-06T14:49:18.269Z,4.00
2022-10-06T14:51:46.959Z,6.40
2022-10-06T14:54:15.354Z,6.47
2022-10-06T14:56:44.578Z,4.40
2022-10-06T14:59:17.131Z,4.93
2022-10-06T15:01:45.989Z,3.13
2022-10-06T15:04:26.627Z,2.67
2022-10-06T15:07:12.352Z,5.97
2022-10-06T15:09:40.776Z,4.13
2022-10-06T15:12:09.171Z,3.23
2022-10-06T15:14:39.843Z,4.70
2022-10-06T15:17:08.736Z,4.10
2022-10-06T15:19:37.737Z,2.23
2022-10-06T15:22:08.849Z,4.37
2022-10-06T15:24:37.220Z,3.37
2022-10-06T15:27:25.108Z,3.97
2022-10-06T15:29:53.743Z,4.33
2022-10-06T15:32:23.680Z,2.60
2022-10-06T15:34:53.093Z,2.77
2022-10-06T15:37:21.789Z,6.17
2022-10-06T15:39:52.396Z,3.23
2022-10-06T15:42:24.206Z,3.37
2022-10-06T15:44:52.916Z,3.07
2022-10-06T15:47:21.324Z,2.63
2022-10-06T15:49:49.883Z,4.93
2022-10-06T15:52:19.004Z,6.50
2022-10-06T15:54:50.048Z,4.23
2022-10-06T15:57:21.302Z,2.80
2022-10-06T15:59:50.232Z,2.30
2022-10-06T16:02:20.464Z,4.43
2022-10-06T16:05:17.417Z,2.63
2022-10-06T16:07:45.879Z,4.97
2022-10-06T16:10:14.292Z,6.67
2022-10-06T16:12:42.944Z,4.33
2022-10-06T16:15:11.954Z,4.57
2022-10-06T16:17:40.544Z,5.73
2022-10-06T16:20:09.668Z,6.70
2022-10-06T16:22:38.252Z,7.77
2022-10-06T16:25:07.343Z,7.57
2022-10-06T16:27:35.758Z,10.27
2022-10-06T16:30:04.506Z,7.70
2022-10-06T16:32:32.866Z,8.40
2022-10-06T16:35:01.444Z,6.37
2022-10-06T16:37:29.964Z,10.20
2022-10-06T16:39:58.588Z,7.53
2022-10-06T16:42:27.304Z,5.87
2022-10-06T16:44:55.837Z,5.57
2022-10-06T16:47:24.185Z,5.37
2022-10-06T16:49:52.675Z,6.93
2022-10-06T16:52:21.071Z,8.13
2022-10-06T16:54:49.603Z,15.10
2022-10-06T16:57:18.417Z,11.83
2022-10-06T16:59:47.211Z,10.90
2022-10-06T17:02:15.760Z,8.53
2022-10-06T17:04:44.495Z,6.97
2022-10-06T17:07:13.084Z,10.13
2022-10-06T17:09:56.051Z,11.73
2022-10-06T17:12:30.197Z,10.47
2022-10-06T17:14:58.526Z,14.07
2022-10-06T17:17:26.941Z,12.40
2022-10-06T17:19:55.346Z,17.70
2022-10-06T17:22:23.841Z,14.63
2022-10-06T17:24:52.283Z,12.80
2022-10-06T17:27:20.767Z,12.60
2022-10-06T17:29:49.233Z,15.63
2022-10-06T17:32:18.363Z,8.07
2022-10-06T17:34:46.782Z,6.73
2022-10-06T17:37:15.423Z,9.17
2022-10-06T17:39:47.053Z,9.53
2022-10-06T17:42:16.317Z,9.43
2022-10-06T17:44:45.563Z,9.73
2022-10-06T17:47:13.977Z,8.20
2022-10-06T17:49:42.375Z,10.13
2022-10-06T17:52:11.798Z,9.20
2022-10-06T17:54:41.538Z,8.80
2022-10-06T17:57:10.069Z,9.77
2022-10-06T17:59:39.150Z,11.83
2022-10-06T18:02:09.303Z,11.37
2022-10-06T18:04:39.110Z,6.50
2022-10-06T18:07:10.222Z,14.53
2022-10-06T18:09:38.742Z,8.60
2022-10-06T18:12:07.856Z,11.27
2022-10-06T18:14:36.332Z,10.17
2022-10-06T18:17:04.787Z,11.30
2022-10-06T18:19:36.329Z,8.73
2022-10-06T18:22:11.691Z,9.83
2022-10-06T18:24:41.408Z,9.93
2022-10-06T18:27:10.294Z,11.63
2022-10-06T18:29:40.015Z,7.23
2022-10-06T18:33:10.831Z,8.87
2022-10-06T18:37:45.694Z,8.70
2022-10-06T18:40:14.812Z,10.17
2022-10-06T18:42:43.704Z,15.20
2022-10-06T18:45:33.177Z,11.33
2022-10-06T18:48:21.390Z,19.87
2022-10-06T18:51:06.260Z,9.97
2022-10-06T18:53:38.406Z,13.40
2022-10-06T18:56:07.587Z,12.93
2022-10-06T18:58:42.780Z,14.17
2022-10-06T19:01:12.876Z,14.57
2022-10-06T19:03:41.718Z,11.60
2022-10-06T19:06:10.388Z,18.10
2022-10-06T19:08:39.077Z,11.63
2022-10-06T19:11:26.129Z,15.60
2022-10-06T19:13:57.556Z,12.73
2022-10-06T19:16:26.024Z,13.27
2022-10-06T19:18:55.234Z,17.87
2022-10-06T19:21:23.639Z,7.73
2022-10-06T19:23:52.427Z,12.80
2022-10-06T19:26:22.703Z,10.50
2022-10-06T19:28:53.682Z,14.97
2022-10-06T19:31:26.939Z,12.07
2022-10-06T19:33:58.964Z,13.47
2022-10-06T19:36:30.964Z,10.80
2022-10-06T19:39:01.882Z,10.63
2022-10-06T19:41:47.704Z,11.30
2022-10-06T19:44:18.290Z,7.80
2022-10-06T19:46:46.729Z,12.90
2022-10-06T19:49:15.156Z,12.53
2022-10-06T19:51:43.642Z,10.80
2022-10-06T19:54:13.656Z,12.33
2022-10-06T19:56:42.691Z,13.10
2022-10-06T19:59:17.285Z,11.40
2022-10-06T20:01:46.560Z,10.30
2022-10-06T20:04:15.692Z,8.80
2022-10-06T20:06:46.785Z,11.83
2022-10-06T20:09:19.222Z,8.93
2022-10-06T20:11:50.316Z,11.60
2022-10-06T20:14:25.409Z,11.40
2022-10-06T20:16:55.751Z,9.93
2022-10-06T20:19:25.486Z,12.20
2022-10-06T20:21:54.226Z,15.63
2022-10-06T20:24:25.913Z,14.80
2022-10-06T20:26:54.818Z,11.17
2022-10-06T20:29:26.449Z,13.77
2022-10-06T20:31:58.821Z,10.20
2022-10-06T20:34:32.176Z,20.30
2022-10-06T20:37:05.210Z,13.43
2022-10-06T20:39:52.511Z,9.80
2022-10-06T20:42:22.225Z,11.50
2022-10-06T20:44:50.679Z,10.13
2022-10-06T20:47:18.986Z,7.77
2022-10-06T20:49:55.501Z,9.63
2022-10-06T20:52:24.938Z,8.87
2022-10-06T20:54:53.344Z,7.90
2022-10-06T20:57:22.005Z,7.40
2022-10-06T20:59:50.723Z,10.33
2022-10-06T21:02:19.078Z,9.73
2022-10-06T21:04:47.600Z,8.03
2022-10-06T21:07:16.128Z,9.97
2022-10-06T21:09:47.554Z,10.63
2022-10-06T21:12:20.536Z,8.10
2022-10-06T21:14:48.880Z,9.30
2022-10-06T21:17:17.408Z,11.80
2022-10-06T21:19:45.501Z,7.60
2022-10-06T21:22:13.919Z,7.33
2022-10-06T21:24:41.912Z,10.33
2022-10-06T21:27:10.933Z,7.87
2022-10-06T21:29:39.268Z,7.37
2022-10-06T21:32:10.197Z,7.63
2022-10-06T21:34:40.237Z,7.47
2022-10-06T21:37:08.596Z,7.40
2022-10-06T21:39:37.008Z,7.33
2022-10-06T21:42:05.415Z,7.57
2022-10-06T21:44:33.761Z,6.47
2022-10-06T21:47:03.112Z,7.43
2022-10-06T21:49:31.577Z,8.53
2022-10-06T21:52:04.681Z,9.37
2022-10-06T21:54:32.884Z,10.93
2022-10-06T21:57:00.912Z,8.20
2022-10-06T21:59:29.294Z,6.60
2022-10-06T22:01:57.998Z,7.27
2022-10-06T22:04:26.443Z,8.80
2022-10-06T22:06:55.235Z,9.53
2022-10-06T22:12:15.788Z,8.33
2022-10-06T22:14:43.754Z,10.43
2022-10-06T22:17:12.426Z,9.40
2022-10-06T22:19:40.886Z,9.80
2022-10-06T22:22:09.278Z,6.90
2022-10-06T22:24:37.650Z,9.33
2022-10-06T22:27:05.809Z,7.57
2022-10-06T22:29:33.839Z,6.60
2022-10-06T22:32:01.821Z,9.87
2022-10-06T22:34:30.310Z,9.97
2022-10-06T22:36:58.324Z,6.90
2022-10-06T22:39:26.684Z,8.63
2022-10-06T22:41:55.074Z,7.97
2022-10-06T22:44:23.411Z,7.67
2022-10-06T22:46:51.899Z,9.30
2022-10-06T22:49:20.389Z,7.33
2022-10-06T22:51:48.858Z,10.00
2022-10-06T22:54:22.314Z,10.30
2022-10-06T22:56:50.851Z,9.23
2022-10-06T22:59:19.303Z,6.70
2022-10-06T23:01:47.258Z,7.93
2022-10-06T23:04:15.941Z,7.47
2022-10-06T23:06:44.357Z,7.80
2022-10-06T23:09:13.366Z,8.30
2022-10-06T23:11:41.998Z,7.77
2022-10-06T23:14:10.722Z,10.47
2022-10-06T23:16:39.304Z,6.13
2022-10-06T23:19:07.398Z,8.83
2022-10-06T23:21:37.013Z,10.60
2022-10-06T23:24:05.151Z,8.83
2022-10-06T23:26:34.182Z,7.13
2022-10-06T23:29:03.955Z,11.50
2022-10-06T23:31:32.129Z,14.17
2022-10-06T23:34:00.560Z,17.87
2022-10-06T23:36:28.568Z,13.63
2022-10-06T23:38:57.170Z,14.27
2022-10-06T23:41:25.557Z,10.57
2022-10-06T23:43:53.614Z,8.07
2022-10-06T23:46:22.143Z,14.23
2022-10-06T23:48:50.152Z,9.20
2022-10-06T23:51:18.686Z,10.73
2022-10-06T23:53:48.408Z,12.23
2022-10-06T23:56:18.914Z,9.13
2022-10-06T23:58:47.606Z,9.33
